ěÝzenÝ letovÚho provozu ╚eskÚ republiky
Letiste: LKKV Aktualizace: 25.05.2024 07:31:04  UTC
 METAR LKKV 25.05. 07:30 ...
METAR LKKV 250730Z 30003KT 250V060 9999 SCT010 14/12 Q1019=
 TAF LKKV 25.05. 05:00 ...
TAF LKKV 250500Z 2506/2606 VRB02KT 9999 SCT025      PROB30 TEMPO 2506/2507 0500 FG BKN003      TEMPO 2510/2519 6000 SHRA BKN017CB      PROB40 TEMPO 2511/2518 3000 TSRA BKN012CB      BECMG 2519/2521 9999 SCT035      TEMPO 2523/2606 5000 BR SCT003=